首页
METAR-TAF:

METAR-TAF

机场 :

阿尔本加, 意大利

纬度: 44-03N, 经度: 008-07E, 海拔: 45米

当前天气观测

该预报发布于52分钟前的08:50 UTC
风速2节,风向多变
温度 7°C
湿度 100%
气压 1001 hPa
能见度10公里或以上
多云层高于6000英尺

METAR: LIMG 150850Z VRB02KT 9999 BKN060 07/07 Q1001

时间: 10:42 (09:42 UTC)


TAF: 丢失

超过4000个机场的气象观测和天气预报(METAR&TAF报告)。

可查询的气象台以黄色和红色小点在地图上表示。

将鼠标移到小点上方,可查看气象台名称。

然后点击查看天气观测和预报。

如需切换地图:点击带黑十字的绿色按钮放大地图;点击带横线的绿色按钮缩小地图;或者点击绿色箭头查看邻近地区的地图。


METAR-TAF: